createdAt,value
2018-01-26T00:00:59.688Z,100315.33
2018-01-26T00:02:02.154Z,100315.73
2018-01-26T00:03:04.687Z,100315.72
2018-01-26T00:04:07.150Z,100309.66
2018-01-26T00:05:09.615Z,100311.67
2018-01-26T00:06:12.080Z,100309.54
2018-01-26T00:07:14.596Z,100310.58
2018-01-26T00:08:17.181Z,100315.44
2018-01-26T00:09:19.646Z,100310.09
2018-01-26T00:10:22.129Z,100314.65
2018-01-26T00:11:24.604Z,100310.57
2018-01-26T00:12:27.085Z,100318.66
2018-01-26T00:13:29.555Z,100316.30
2018-01-26T00:14:32.022Z,100318.58
2018-01-26T00:15:34.487Z,100316.67
2018-01-26T00:16:37.021Z,100319.04
2018-01-26T00:17:39.501Z,100315.37
2018-01-26T00:18:41.974Z,100314.05
2018-01-26T00:19:44.455Z,100315.16
2018-01-26T00:20:46.918Z,100314.97
2018-01-26T00:21:49.393Z,100312.19
2018-01-26T00:22:51.858Z,100314.14
2018-01-26T00:23:54.322Z,100311.75
2018-01-26T00:24:56.801Z,100306.78
2018-01-26T00:25:59.281Z,100308.30
2018-01-26T00:27:01.758Z,100308.19
2018-01-26T00:28:04.248Z,100307.98
2018-01-26T00:29:06.733Z,100305.67
2018-01-26T00:30:09.212Z,100310.86
2018-01-26T00:31:11.674Z,100311.34
2018-01-26T00:32:14.138Z,100310.68
2018-01-26T00:33:16.620Z,100308.23
2018-01-26T00:34:19.091Z,100303.34
2018-01-26T00:35:21.555Z,100305.78
2018-01-26T00:36:24.028Z,100307.52
2018-01-26T00:37:26.513Z,100305.75
2018-01-26T00:38:28.979Z,100305.83
2018-01-26T00:39:31.443Z,100308.30
2018-01-26T00:40:33.907Z,100303.23
2018-01-26T00:41:36.370Z,100305.94
2018-01-26T00:42:38.859Z,100303.00
2018-01-26T00:43:41.341Z,100301.53
2018-01-26T00:44:43.806Z,100294.94
2018-01-26T00:45:46.289Z,100297.75
2018-01-26T00:46:48.764Z,100295.02
2018-01-26T00:47:51.248Z,100296.58
2018-01-26T00:48:53.710Z,100303.90
2018-01-26T00:49:56.188Z,100299.58
2018-01-26T00:50:58.668Z,100306.09
2018-01-26T00:52:01.134Z,100301.05
2018-01-26T00:53:03.608Z,100301.94
2018-01-26T00:54:06.094Z,100304.83
2018-01-26T00:55:08.587Z,100305.42
2018-01-26T00:56:11.068Z,100309.48
2018-01-26T00:57:13.534Z,100303.21
2018-01-26T00:58:16.009Z,100300.67
2018-01-26T00:59:18.493Z,100302.70
2018-01-26T01:00:20.969Z,100307.81
2018-01-26T01:01:23.446Z,100308.81
2018-01-26T01:02:25.916Z,100313.11
2018-01-26T01:03:28.380Z,100313.00
2018-01-26T01:04:30.846Z,100313.05
2018-01-26T01:05:33.325Z,100306.66
2018-01-26T01:06:35.802Z,100306.86
2018-01-26T01:07:38.267Z,100305.08
2018-01-26T01:08:40.741Z,100307.30
2018-01-26T01:09:43.221Z,100307.87
2018-01-26T01:10:45.708Z,100311.16
2018-01-26T01:11:48.182Z,100309.48
2018-01-26T01:12:50.646Z,100311.01
2018-01-26T01:13:53.126Z,100317.08
2018-01-26T01:14:55.596Z,100310.34
2018-01-26T01:15:58.061Z,100308.47
2018-01-26T01:17:00.549Z,100317.48
2018-01-26T01:18:03.015Z,100314.00
2018-01-26T01:19:05.488Z,100314.02
2018-01-26T01:20:07.976Z,100317.42
2018-01-26T01:21:10.439Z,100311.75
2018-01-26T01:22:12.912Z,100321.02
2018-01-26T01:23:15.383Z,100319.70
2018-01-26T01:24:17.859Z,100317.22
2018-01-26T01:25:20.326Z,100321.22
2018-01-26T01:26:22.800Z,100315.64
2018-01-26T01:27:25.263Z,100311.32
2018-01-26T01:28:27.747Z,100309.48
2018-01-26T01:29:30.228Z,100313.97
2018-01-26T01:30:32.704Z,100314.38
2018-01-26T01:31:35.166Z,100314.80
2018-01-26T01:32:37.631Z,100307.81
2018-01-26T01:33:40.096Z,100301.30
2018-01-26T01:34:42.581Z,100305.42
2018-01-26T01:35:45.046Z,100303.04
2018-01-26T01:36:47.511Z,100298.17
2018-01-26T01:37:50.206Z,100297.73
2018-01-26T01:38:52.671Z,100298.41
2018-01-26T01:39:55.153Z,100297.94
2018-01-26T01:40:57.614Z,100295.64
2018-01-26T01:42:00.079Z,100294.55
2018-01-26T01:43:02.558Z,100297.72
2018-01-26T01:44:05.019Z,100300.05
2018-01-26T01:45:07.483Z,100301.87
2018-01-26T01:46:09.951Z,100302.03
2018-01-26T01:47:12.429Z,100302.81
2018-01-26T01:48:15.393Z,100304.27
2018-01-26T01:49:17.876Z,100305.69
2018-01-26T01:50:20.356Z,100308.30
2018-01-26T01:51:22.844Z,100304.47
2018-01-26T01:52:25.322Z,100306.67
2018-01-26T01:53:27.795Z,100298.39
2018-01-26T01:54:30.263Z,100299.26
2018-01-26T01:55:32.742Z,100303.80
2018-01-26T01:56:35.226Z,100301.44
2018-01-26T01:57:37.709Z,100303.94
2018-01-26T01:58:40.175Z,100307.67
2018-01-26T01:59:42.639Z,100309.13
2018-01-26T02:00:45.107Z,100307.23
2018-01-26T02:01:47.585Z,100309.82
2018-01-26T02:02:50.060Z,100311.14
2018-01-26T02:03:52.537Z,100313.68
2018-01-26T02:04:55.017Z,100314.28
2018-01-26T02:05:57.474Z,100313.33
2018-01-26T02:06:59.960Z,100315.13
2018-01-26T02:08:02.431Z,100320.88
2018-01-26T02:09:04.909Z,100314.16
2018-01-26T02:10:07.374Z,100318.71
2018-01-26T02:11:09.842Z,100318.88
2018-01-26T02:12:12.329Z,100323.09
2018-01-26T02:13:14.792Z,100326.61
2018-01-26T02:14:17.255Z,100323.84
2018-01-26T02:15:19.742Z,100324.91
2018-01-26T02:16:22.217Z,100324.68
2018-01-26T02:17:24.687Z,100327.55
2018-01-26T02:18:27.155Z,100327.27
2018-01-26T02:19:29.622Z,100330.66
2018-01-26T02:20:32.100Z,100331.09
2018-01-26T02:21:34.570Z,100325.72
2018-01-26T02:22:37.046Z,100322.72
2018-01-26T02:23:39.513Z,100321.20
2018-01-26T02:24:41.988Z,100318.34
2018-01-26T02:25:44.472Z,100321.95
2018-01-26T02:26:46.938Z,100321.63
2018-01-26T02:27:49.403Z,100321.80
2018-01-26T02:28:51.861Z,100332.80
2018-01-26T02:29:54.325Z,100330.75
2018-01-26T02:30:56.787Z,100329.08
2018-01-26T02:31:59.254Z,100329.31
2018-01-26T02:33:01.734Z,100330.92
2018-01-26T02:34:04.209Z,100331.62
2018-01-26T02:35:06.674Z,100332.94
2018-01-26T02:36:09.164Z,100340.71
2018-01-26T02:37:11.645Z,100340.91
2018-01-26T02:38:14.111Z,100335.06
2018-01-26T02:39:16.570Z,100330.34
2018-01-26T02:40:19.035Z,100327.20
2018-01-26T02:41:21.503Z,100323.98
2018-01-26T02:42:23.976Z,100319.19
2018-01-26T02:43:26.443Z,100314.55
2018-01-26T02:44:28.911Z,100314.77
2018-01-26T02:45:31.380Z,100315.59
2018-01-26T02:46:33.847Z,100317.81
2018-01-26T02:47:36.310Z,100316.70
2018-01-26T02:48:38.788Z,100317.30
2018-01-26T02:49:41.277Z,100318.70
2018-01-26T02:50:43.747Z,100306.30
2018-01-26T02:51:46.211Z,100311.97
2018-01-26T02:52:48.692Z,100310.55
2018-01-26T02:53:51.170Z,100306.51
2018-01-26T02:54:53.657Z,100302.95
2018-01-26T02:55:56.119Z,100305.40
2018-01-26T02:56:58.586Z,100304.39
2018-01-26T02:58:01.051Z,100306.83
2018-01-26T02:59:03.515Z,100306.84
2018-01-26T03:00:06.002Z,100308.02
2018-01-26T03:01:08.504Z,100305.39
2018-01-26T03:02:11.011Z,100308.70
2018-01-26T03:03:13.483Z,100301.17
2018-01-26T03:04:15.947Z,100305.91
2018-01-26T03:05:18.470Z,100308.96
2018-01-26T03:06:21.004Z,100311.16
2018-01-26T03:07:23.513Z,100315.04
2018-01-26T03:08:25.982Z,100312.79
2018-01-26T03:09:28.472Z,100320.68
2018-01-26T03:10:30.945Z,100312.94
2018-01-26T03:11:33.425Z,100323.22
2018-01-26T03:12:35.888Z,100330.41
2018-01-26T03:13:38.373Z,100335.67
2018-01-26T03:14:40.835Z,100326.47
2018-01-26T03:15:43.297Z,100327.62
2018-01-26T03:16:45.773Z,100334.87
2018-01-26T03:17:48.242Z,100333.84
2018-01-26T03:18:50.717Z,100336.77
2018-01-26T03:19:53.196Z,100334.78
2018-01-26T03:20:55.666Z,100335.47
2018-01-26T03:21:58.164Z,100337.17
2018-01-26T03:23:00.634Z,100330.58
2018-01-26T03:24:03.122Z,100322.72
2018-01-26T03:25:05.604Z,100336.77
2018-01-26T03:26:08.066Z,100335.58
2018-01-26T03:27:10.544Z,100338.95
2018-01-26T03:28:13.033Z,100336.94
2018-01-26T03:29:15.498Z,100341.59
2018-01-26T03:30:17.990Z,100339.64
2018-01-26T03:31:20.465Z,100341.59
2018-01-26T03:32:22.934Z,100342.27
2018-01-26T03:33:25.399Z,100351.45
2018-01-26T03:34:27.867Z,100347.25
2018-01-26T03:35:30.339Z,100342.47
2018-01-26T03:36:32.802Z,100349.23
2018-01-26T03:37:35.280Z,100345.86
2018-01-26T03:38:37.760Z,100343.83
2018-01-26T03:39:40.222Z,100346.73
2018-01-26T03:40:42.696Z,100352.54
2018-01-26T03:41:45.158Z,100354.20
2018-01-26T03:42:47.634Z,100353.81
2018-01-26T03:43:50.102Z,100355.42
2018-01-26T03:44:52.571Z,100354.92
2018-01-26T03:45:55.034Z,100356.34
2018-01-26T03:46:57.498Z,100356.43
2018-01-26T03:47:59.962Z,100359.13
2018-01-26T03:49:02.449Z,100356.28
2018-01-26T03:50:04.911Z,100364.09
2018-01-26T03:51:07.379Z,100360.52
2018-01-26T03:52:10.101Z,100363.69
2018-01-26T03:53:13.311Z,100357.87
2018-01-26T03:54:15.789Z,100367.70
2018-01-26T03:55:18.304Z,100359.28
2018-01-26T03:56:20.786Z,100363.79
2018-01-26T03:57:23.255Z,100363.05
2018-01-26T03:58:25.760Z,100369.69
2018-01-26T03:59:28.241Z,100364.77
2018-01-26T04:00:30.719Z,100369.48
2018-01-26T04:01:33.186Z,100370.23
2018-01-26T04:02:35.665Z,100370.94
2018-01-26T04:03:38.150Z,100368.66
2018-01-26T04:04:40.626Z,100379.84
2018-01-26T04:05:43.105Z,100369.76
2018-01-26T04:06:45.571Z,100378.88
2018-01-26T04:07:48.053Z,100375.74
2018-01-26T04:08:50.539Z,100380.00
2018-01-26T04:09:53.002Z,100383.80
2018-01-26T04:10:55.466Z,100385.53
2018-01-26T04:11:57.949Z,100378.86
2018-01-26T04:13:00.435Z,100380.03
2018-01-26T04:14:02.915Z,100380.00
2018-01-26T04:15:05.397Z,100379.72
2018-01-26T04:16:07.880Z,100382.44
2018-01-26T04:17:10.357Z,100390.03
2018-01-26T04:18:12.837Z,100388.91
2018-01-26T04:19:15.322Z,100391.22
2018-01-26T04:20:17.786Z,100392.05
2018-01-26T04:21:20.262Z,100389.36
2018-01-26T04:22:22.744Z,100389.97
2018-01-26T04:23:25.210Z,100389.58
2018-01-26T04:24:27.712Z,100395.84
2018-01-26T04:25:30.194Z,100389.21
2018-01-26T04:26:32.661Z,100389.28
2018-01-26T04:27:35.145Z,100388.41
2018-01-26T04:28:37.629Z,100387.34
2018-01-26T04:29:40.106Z,100388.88
2018-01-26T04:30:42.591Z,100381.09
2018-01-26T04:31:45.069Z,100383.21
2018-01-26T04:32:47.568Z,100387.39
2018-01-26T04:33:50.040Z,100382.42
2018-01-26T04:34:52.512Z,100376.34
2018-01-26T04:35:54.979Z,100380.59
2018-01-26T04:36:57.456Z,100384.05
2018-01-26T04:37:59.937Z,100380.89
2018-01-26T04:39:02.403Z,100382.00
2018-01-26T04:40:04.928Z,100378.42
2018-01-26T04:41:07.424Z,100384.25
2018-01-26T04:42:09.899Z,100382.44
2018-01-26T04:43:12.366Z,100388.70
2018-01-26T04:44:14.850Z,100396.52
2018-01-26T04:45:17.314Z,100403.06
2018-01-26T04:46:19.775Z,100398.78
2018-01-26T04:47:22.277Z,100403.84
2018-01-26T04:48:24.738Z,100402.52
2018-01-26T04:49:27.213Z,100407.66
2018-01-26T04:50:29.702Z,100409.47
2018-01-26T04:51:32.181Z,100407.59
2018-01-26T04:52:34.660Z,100407.81
2018-01-26T04:53:37.140Z,100409.68
2018-01-26T04:54:39.632Z,100406.80
2018-01-26T04:55:42.116Z,100412.91
2018-01-26T04:56:44.587Z,100409.02
2018-01-26T04:57:47.082Z,100409.27
2018-01-26T04:58:49.547Z,100409.52
2018-01-26T04:59:52.124Z,100413.58
2018-01-26T05:00:54.678Z,100411.33
2018-01-26T05:01:57.150Z,100417.91
2018-01-26T05:02:59.652Z,100421.36
2018-01-26T05:04:02.146Z,100419.27
2018-01-26T05:05:04.628Z,100423.48
2018-01-26T05:06:07.095Z,100425.39
2018-01-26T05:07:09.581Z,100418.21
2018-01-26T05:08:12.058Z,100420.30
2018-01-26T05:09:14.536Z,100419.25
2018-01-26T05:10:17.012Z,100421.25
2018-01-26T05:11:19.496Z,100424.92
2018-01-26T05:12:21.976Z,100418.88
2018-01-26T05:13:24.452Z,100425.62
2018-01-26T05:14:26.933Z,100431.12
2018-01-26T05:15:29.453Z,100430.69
2018-01-26T05:16:31.936Z,100431.70
2018-01-26T05:17:34.425Z,100432.29
2018-01-26T05:18:36.914Z,100432.13
2018-01-26T05:19:39.378Z,100435.43
2018-01-26T05:20:41.873Z,100435.73
2018-01-26T05:21:44.347Z,100429.48
2018-01-26T05:22:46.829Z,100438.11
2018-01-26T05:23:49.318Z,100434.14
2018-01-26T05:24:51.798Z,100436.64
2018-01-26T05:25:54.294Z,100429.78
2018-01-26T05:26:56.768Z,100432.50
2018-01-26T05:27:59.244Z,100434.30
2018-01-26T05:29:01.757Z,100428.22
2018-01-26T05:30:04.198Z,100431.80
2018-01-26T05:31:06.770Z,100428.70
2018-01-26T05:32:09.237Z,100429.20
2018-01-26T05:33:11.703Z,100424.91
2018-01-26T05:34:14.246Z,100431.88
2018-01-26T05:35:16.806Z,100427.88
2018-01-26T05:36:19.266Z,100424.27
2018-01-26T05:37:21.748Z,100418.95
2018-01-26T05:38:24.234Z,100418.23
2018-01-26T05:39:26.703Z,100417.99
2018-01-26T05:40:29.184Z,100413.49
2018-01-26T05:41:31.669Z,100418.06
2018-01-26T05:42:34.148Z,100418.49
2018-01-26T05:43:36.620Z,100424.79
2018-01-26T05:44:39.088Z,100426.64
2018-01-26T05:45:41.572Z,100432.78
2018-01-26T05:46:44.043Z,100434.23
2018-01-26T05:47:46.524Z,100429.26
2018-01-26T05:48:48.990Z,100443.02
2018-01-26T05:49:51.503Z,100440.58
2018-01-26T05:50:53.978Z,100440.86
2018-01-26T05:51:56.466Z,100446.02
2018-01-26T05:52:58.935Z,100444.23
2018-01-26T05:54:01.412Z,100447.31
2018-01-26T05:55:03.908Z,100452.91
2018-01-26T05:56:06.408Z,100453.58
2018-01-26T05:57:08.889Z,100457.44
2018-01-26T05:58:11.354Z,100453.48
2018-01-26T05:59:13.828Z,100457.01
2018-01-26T06:00:16.308Z,100460.49
2018-01-26T06:01:18.775Z,100462.66
2018-01-26T06:02:21.274Z,100457.01
2018-01-26T06:03:23.742Z,100455.77
2018-01-26T06:04:26.207Z,100455.84
2018-01-26T06:05:28.689Z,100461.98
2018-01-26T06:06:31.168Z,100462.65
2018-01-26T06:07:33.626Z,100461.67
2018-01-26T06:08:36.104Z,100464.78
2018-01-26T06:09:38.580Z,100468.62
2018-01-26T06:10:41.046Z,100468.37
2018-01-26T06:11:43.524Z,100467.13
2018-01-26T06:12:46.100Z,100472.53
2018-01-26T06:13:48.760Z,100465.90
2018-01-26T06:14:51.232Z,100470.38
2018-01-26T06:15:53.716Z,100462.16
2018-01-26T06:16:56.192Z,100460.03
2018-01-26T06:17:58.664Z,100461.36
2018-01-26T06:19:01.130Z,100464.27
2018-01-26T06:20:03.606Z,100466.64
2018-01-26T06:21:06.090Z,100465.31
2018-01-26T06:22:08.554Z,100468.83
2018-01-26T06:23:11.018Z,100476.98
2018-01-26T06:24:13.483Z,100481.73
2018-01-26T06:25:15.946Z,100486.67
2018-01-26T06:26:18.424Z,100491.30
2018-01-26T06:27:20.933Z,100488.55
2018-01-26T06:28:23.400Z,100488.23
2018-01-26T06:29:25.886Z,100484.11
2018-01-26T06:30:28.346Z,100477.69
2018-01-26T06:31:30.950Z,100470.66
2018-01-26T06:32:33.425Z,100465.16
2018-01-26T06:33:35.971Z,100467.87
2018-01-26T06:34:38.434Z,100472.22
2018-01-26T06:35:40.909Z,100479.38
2018-01-26T06:36:43.366Z,100485.14
2018-01-26T06:37:45.831Z,100484.36
2018-01-26T06:38:48.290Z,100485.72
2018-01-26T06:39:50.762Z,100487.08
2018-01-26T06:40:53.277Z,100489.69
2018-01-26T06:41:55.744Z,100494.53
2018-01-26T06:42:58.229Z,100495.03
2018-01-26T06:44:00.690Z,100495.14
2018-01-26T06:45:03.169Z,100496.53
2018-01-26T06:46:05.666Z,100496.39
2018-01-26T06:47:23.219Z,100493.75
2018-01-26T06:48:25.840Z,100493.12
2018-01-26T06:49:28.324Z,100488.65
2018-01-26T06:50:30.825Z,100492.94
2018-01-26T06:51:33.381Z,100490.03
2018-01-26T06:52:35.874Z,100488.06
2018-01-26T06:53:38.363Z,100489.58
2018-01-26T06:54:41.055Z,100484.58
2018-01-26T06:55:43.532Z,100485.38
2018-01-26T06:56:45.998Z,100491.08
2018-01-26T06:57:48.544Z,100498.93
2018-01-26T06:58:51.009Z,100506.73
2018-01-26T06:59:53.484Z,100498.63
2018-01-26T07:00:55.971Z,100505.52
2018-01-26T07:01:58.434Z,100509.84
2018-01-26T07:03:00.909Z,100507.60
2018-01-26T07:04:03.389Z,100509.25
2018-01-26T07:05:05.891Z,100510.39
2018-01-26T07:06:08.441Z,100507.17
2018-01-26T07:07:10.916Z,100508.08
2018-01-26T07:08:13.396Z,100509.56
2018-01-26T07:09:15.868Z,100518.47
2018-01-26T07:10:18.374Z,100519.31
2018-01-26T07:11:20.875Z,100524.55
2018-01-26T07:12:23.330Z,100527.49
2018-01-26T07:13:25.808Z,100531.34
2018-01-26T07:14:28.289Z,100529.69
2018-01-26T07:15:30.763Z,100536.50
2018-01-26T07:16:33.277Z,100541.86
2018-01-26T07:17:35.762Z,100541.36
2018-01-26T07:18:38.260Z,100550.13
2018-01-26T07:19:40.799Z,100559.97
2018-01-26T07:20:43.285Z,100559.33
2018-01-26T07:21:45.779Z,100559.20
2018-01-26T07:22:48.265Z,100562.61
2018-01-26T07:23:50.754Z,100565.14
2018-01-26T07:24:53.228Z,100569.26
2018-01-26T07:25:55.718Z,100571.06
2018-01-26T07:26:58.206Z,100572.02
2018-01-26T07:28:00.685Z,100575.00
2018-01-26T07:29:03.227Z,100568.66
2018-01-26T07:30:05.699Z,100574.58
2018-01-26T07:31:08.449Z,100573.45
2018-01-26T07:32:10.930Z,100570.80
2018-01-26T07:33:13.437Z,100567.34
2018-01-26T07:34:16.018Z,100562.05
2018-01-26T07:35:18.496Z,100566.97
2018-01-26T07:36:20.967Z,100564.07
2018-01-26T07:37:23.470Z,100572.53
2018-01-26T07:38:25.953Z,100572.98
2018-01-26T07:39:28.504Z,100575.31
2018-01-26T07:40:30.994Z,100575.16
2018-01-26T07:41:33.463Z,100580.44
2018-01-26T07:42:35.931Z,100581.95
2018-01-26T07:43:38.413Z,100585.09
2018-01-26T07:44:40.883Z,100593.04
2018-01-26T07:45:43.345Z,100588.80
2018-01-26T07:46:45.820Z,100592.82
2018-01-26T07:47:48.297Z,100595.47
2018-01-26T07:48:50.756Z,100600.89
2018-01-26T07:49:53.236Z,100600.15
2018-01-26T07:50:55.712Z,100600.58
2018-01-26T07:51:58.193Z,100602.28
2018-01-26T07:53:00.659Z,100599.29
2018-01-26T07:54:03.136Z,100603.37
2018-01-26T07:55:05.603Z,100596.87
2018-01-26T07:56:08.085Z,100600.53
2018-01-26T07:57:10.559Z,100597.70
2018-01-26T07:58:13.040Z,100592.06
2018-01-26T07:59:15.532Z,100599.45
2018-01-26T08:00:18.023Z,100600.16
2018-01-26T08:01:20.580Z,100602.50
2018-01-26T08:02:23.043Z,100608.00
2018-01-26T08:03:25.578Z,100606.60
2018-01-26T08:04:28.058Z,100600.30
2018-01-26T08:05:30.584Z,100603.80
2018-01-26T08:06:33.038Z,100600.23
2018-01-26T08:07:35.516Z,100601.77
2018-01-26T08:08:37.996Z,100609.40
2018-01-26T08:09:40.475Z,100605.98
2018-01-26T08:10:42.938Z,100607.55
2018-01-26T08:11:45.513Z,100611.38
2018-01-26T08:12:47.980Z,100607.86
2018-01-26T08:13:50.466Z,100604.80
2018-01-26T08:14:53.021Z,100595.18
2018-01-26T08:15:55.498Z,100603.59
2018-01-26T08:16:57.981Z,100609.86
2018-01-26T08:18:00.462Z,100613.72
2018-01-26T08:19:02.938Z,100613.89
2018-01-26T08:20:05.400Z,100618.91
2018-01-26T08:21:07.922Z,100613.39
2018-01-26T08:22:10.385Z,100609.11
2018-01-26T08:23:12.849Z,100611.00
2018-01-26T08:24:15.328Z,100607.35
2018-01-26T08:25:17.794Z,100605.27
2018-01-26T08:26:20.257Z,100602.47
2018-01-26T08:27:22.739Z,100608.14
2018-01-26T08:28:25.199Z,100609.16
2018-01-26T08:29:27.670Z,100610.45
2018-01-26T08:30:30.152Z,100610.28
2018-01-26T08:31:32.637Z,100615.12
2018-01-26T08:32:35.115Z,100619.69
2018-01-26T08:33:37.589Z,100615.59
2018-01-26T08:34:40.077Z,100617.75
2018-01-26T08:35:42.552Z,100622.84
2018-01-26T08:36:45.029Z,100626.03
2018-01-26T08:37:47.496Z,100629.38
2018-01-26T08:38:49.972Z,100625.19
2018-01-26T08:39:52.448Z,100624.84
2018-01-26T08:40:54.932Z,100618.77
2018-01-26T08:41:57.445Z,100621.50
2018-01-26T08:42:59.914Z,100618.88
2018-01-26T08:44:02.391Z,100614.86
2018-01-26T08:45:04.878Z,100607.98
2018-01-26T08:46:07.385Z,100615.15
2018-01-26T08:47:09.865Z,100611.42
2018-01-26T08:48:12.359Z,100618.53
2018-01-26T08:49:14.837Z,100619.84
2018-01-26T08:50:17.324Z,100626.50
2018-01-26T08:51:19.791Z,100632.16
2018-01-26T08:52:22.268Z,100636.33
2018-01-26T08:53:24.748Z,100634.20
2018-01-26T08:54:27.256Z,100628.78
2018-01-26T08:55:29.733Z,100636.67
2018-01-26T08:56:32.206Z,100630.28
2018-01-26T08:57:34.687Z,100626.73
2018-01-26T08:58:37.151Z,100630.08
2018-01-26T08:59:39.633Z,100629.64
2018-01-26T09:00:42.100Z,100627.75
2018-01-26T09:01:44.570Z,100626.44
2018-01-26T09:02:47.065Z,100627.08
2018-01-26T09:03:49.545Z,100627.27
2018-01-26T09:04:52.014Z,100629.20
2018-01-26T09:05:54.497Z,100634.27
2018-01-26T09:06:57.007Z,100633.92
2018-01-26T09:07:59.484Z,100629.85
2018-01-26T09:09:02.013Z,100633.41
2018-01-26T09:10:04.489Z,100633.08
2018-01-26T09:11:07.007Z,100637.80
2018-01-26T09:12:09.484Z,100632.56
2018-01-26T09:13:11.962Z,100639.91
2018-01-26T09:14:14.432Z,100639.77
2018-01-26T09:15:16.890Z,100645.75
2018-01-26T09:16:19.347Z,100647.18
2018-01-26T09:17:21.820Z,100651.38
2018-01-26T09:18:24.274Z,100651.63
2018-01-26T09:19:26.757Z,100650.91
2018-01-26T09:20:29.236Z,100657.43
2018-01-26T09:21:31.709Z,100653.52
2018-01-26T09:22:34.193Z,100653.94
2018-01-26T09:23:36.666Z,100661.91
2018-01-26T09:24:39.130Z,100658.41
2018-01-26T09:25:41.598Z,100666.33
2018-01-26T09:26:44.092Z,100663.86
2018-01-26T09:27:46.550Z,100669.10
2018-01-26T09:28:49.011Z,100664.94
2018-01-26T09:29:51.466Z,100671.81
2018-01-26T09:30:53.930Z,100670.70
2018-01-26T09:31:56.437Z,100670.97
2018-01-26T09:32:58.909Z,100674.95
2018-01-26T09:34:01.407Z,100673.52
2018-01-26T09:35:03.883Z,100676.64
2018-01-26T09:36:06.357Z,100672.97
2018-01-26T09:37:08.839Z,100678.92
2018-01-26T09:38:11.300Z,100679.31
2018-01-26T09:39:13.781Z,100683.74
2018-01-26T09:40:16.246Z,100682.34
2018-01-26T09:41:18.714Z,100688.13
2018-01-26T09:42:21.205Z,100691.75
2018-01-26T09:43:23.681Z,100692.27
2018-01-26T09:44:26.153Z,100698.08
2018-01-26T09:45:28.651Z,100697.16
2018-01-26T09:46:31.114Z,100693.75
2018-01-26T09:47:33.613Z,100700.02
2018-01-26T09:48:36.070Z,100696.63
2018-01-26T09:49:38.555Z,100696.63
2018-01-26T09:50:41.029Z,100696.95
2018-01-26T09:51:43.513Z,100697.77
2018-01-26T09:52:45.991Z,100695.22
2018-01-26T09:53:48.454Z,100700.05
2018-01-26T09:54:50.973Z,100699.70
2018-01-26T09:55:53.448Z,100706.91
2018-01-26T09:56:55.919Z,100703.28
2018-01-26T09:57:58.419Z,100711.56
2018-01-26T09:59:00.940Z,100706.83
2018-01-26T10:00:03.427Z,100712.94
2018-01-26T10:01:05.929Z,100714.17
2018-01-26T10:02:08.417Z,100710.91
2018-01-26T10:03:10.906Z,100710.06
2018-01-26T10:04:13.387Z,100712.86
2018-01-26T10:05:15.873Z,100708.33
2018-01-26T10:06:18.419Z,100717.93
2018-01-26T10:07:20.883Z,100717.33
2018-01-26T10:08:23.361Z,100717.44
2018-01-26T10:09:25.838Z,100715.89
2018-01-26T10:10:28.321Z,100717.57
2018-01-26T10:11:30.787Z,100717.39
2018-01-26T10:12:33.250Z,100715.96
2018-01-26T10:13:35.738Z,100711.41
2018-01-26T10:14:38.208Z,100711.48
2018-01-26T10:15:40.695Z,100709.61
2018-01-26T10:16:43.177Z,100712.16
2018-01-26T10:17:45.657Z,100716.20
2018-01-26T10:18:48.219Z,100711.92
2018-01-26T10:19:50.682Z,100715.30
2018-01-26T10:20:53.153Z,100717.23
2018-01-26T10:21:55.630Z,100718.44
2018-01-26T10:22:58.100Z,100724.26
2018-01-26T10:24:00.617Z,100719.34
2018-01-26T10:25:03.074Z,100720.03
2018-01-26T10:26:05.536Z,100719.94
2018-01-26T10:27:07.994Z,100724.55
2018-01-26T10:28:10.472Z,100720.03
2018-01-26T10:29:13.057Z,100721.80
2018-01-26T10:30:15.514Z,100720.45
2018-01-26T10:31:17.993Z,100725.43
2018-01-26T10:32:20.455Z,100726.19
2018-01-26T10:33:22.926Z,100725.31
2018-01-26T10:34:25.415Z,100729.95
2018-01-26T10:35:28.052Z,100729.65
2018-01-26T10:36:30.525Z,100728.97
2018-01-26T10:37:32.987Z,100732.33
2018-01-26T10:38:36.334Z,100732.14
2018-01-26T10:39:38.815Z,100737.71
2018-01-26T10:40:41.289Z,100733.68
2018-01-26T10:41:44.246Z,100735.47
2018-01-26T10:42:46.756Z,100735.13
2018-01-26T10:43:49.223Z,100734.05
2018-01-26T10:44:51.709Z,100737.76
2018-01-26T10:45:54.189Z,100745.92
2018-01-26T10:46:56.700Z,100745.52
2018-01-26T10:47:59.162Z,100741.30
2018-01-26T10:49:01.652Z,100740.12
2018-01-26T10:50:04.166Z,100742.34
2018-01-26T10:51:06.651Z,100749.51
2018-01-26T10:52:09.138Z,100744.05
2018-01-26T10:53:11.635Z,100749.02
2018-01-26T10:54:14.150Z,100748.83
2018-01-26T10:55:16.690Z,100752.11
2018-01-26T10:56:19.210Z,100754.05
2018-01-26T10:57:21.750Z,100747.02
2018-01-26T10:58:24.259Z,100752.41
2018-01-26T10:59:26.727Z,100750.37
2018-01-26T11:00:29.218Z,100743.94
2018-01-26T11:01:31.691Z,100749.91
2018-01-26T11:02:34.158Z,100750.33
2018-01-26T11:03:36.627Z,100757.61
2018-01-26T11:04:39.101Z,100756.34
2018-01-26T11:05:41.728Z,100762.67
2018-01-26T11:06:44.205Z,100762.23
2018-01-26T11:07:46.670Z,100758.19
2018-01-26T11:08:49.146Z,100760.49
2018-01-26T11:09:51.633Z,100762.73
2018-01-26T11:10:54.129Z,100762.23
2018-01-26T11:11:56.599Z,100766.37
2018-01-26T11:12:59.073Z,100768.14
2018-01-26T11:14:01.530Z,100766.34
2018-01-26T11:15:04.009Z,100775.41
2018-01-26T11:16:06.503Z,100772.31
2018-01-26T11:17:08.981Z,100775.69
2018-01-26T11:18:11.463Z,100773.84
2018-01-26T11:19:14.071Z,100773.91
2018-01-26T11:20:16.545Z,100771.94
2018-01-26T11:21:19.036Z,100771.93
2018-01-26T11:22:21.502Z,100772.09
2018-01-26T11:23:24.894Z,100774.72
2018-01-26T11:24:27.454Z,100775.73
2018-01-26T11:25:29.926Z,100776.25
2018-01-26T11:26:32.444Z,100779.30
2018-01-26T11:27:34.888Z,100773.72
2018-01-26T11:28:37.369Z,100779.47
2018-01-26T11:29:39.827Z,100778.23
2018-01-26T11:30:42.302Z,100778.33
2018-01-26T11:31:44.785Z,100784.77
2018-01-26T11:32:47.269Z,100783.73
2018-01-26T11:33:49.748Z,100780.92
2018-01-26T11:34:52.210Z,100785.87
2018-01-26T11:35:54.674Z,100778.41
2018-01-26T11:36:57.143Z,100785.55
2018-01-26T11:37:59.641Z,100778.84
2018-01-26T11:39:02.111Z,100780.52
2018-01-26T11:40:04.574Z,100785.92
2018-01-26T11:41:07.048Z,100787.20
2018-01-26T11:42:09.510Z,100788.31
2018-01-26T11:43:11.993Z,100788.59
2018-01-26T11:44:14.482Z,100789.06
2018-01-26T11:45:16.985Z,100793.23
2018-01-26T11:46:19.469Z,100785.89
2018-01-26T11:47:21.938Z,100792.78
2018-01-26T11:48:24.492Z,100798.89
2018-01-26T11:49:26.954Z,100794.96
2018-01-26T11:50:29.428Z,100795.09
2018-01-26T11:51:31.928Z,100794.89
2018-01-26T11:52:34.398Z,100799.54
2018-01-26T11:53:36.863Z,100795.98